Time;durP1;ratioP1;P1;durP2;ratioP2;P2;SDS_P1;SDS_P2;PMS_P1;PMS_P2;Temp;Humidity;BMP_temperature;BMP_pressure;BME280_temperature;BME280_humidity;BME280_pressure;Samples;Min_cycle;Max_cycle;Signal;HPM_P1;HPM_P2
2021/10/13 00:01:52;;;;;;;10.17;7.27;;;;;;;;;;5110085;28;20530;-65
2021/10/13 00:04:19;;;;;;;7.63;6.03;;;;;;;;;;5111220;28;21019;-65
2021/10/13 00:06:46;;;;;;;8.00;6.70;;;;;;;;;;5092784;28;20960;-65
2021/10/13 00:09:14;;;;;;;7.40;6.00;;;;;;;;;;5096690;28;20438;-65
2021/10/13 00:11:41;;;;;;;14.10;7.03;;;;;;;;;;5111023;28;20526;-65
2021/10/13 00:14:10;;;;;;;7.97;6.00;;;;;;;;;;5110134;28;20475;-65
2021/10/13 00:16:37;;;;;;;7.87;5.97;;;;;;;;;;5114948;28;20813;-65
2021/10/13 00:19:04;;;;;;;8.27;6.80;;;;;;;;;;5110381;28;20435;-65
2021/10/13 00:21:31;;;;;;;10.17;7.10;;;;;;;;;;5103634;28;20531;-65
2021/10/13 00:23:59;;;;;;;9.00;7.10;;;;;;;;;;5105471;28;20881;-65
2021/10/13 00:26:26;;;;;;;10.70;7.30;;;;;;;;;;5114934;28;20445;-65
2021/10/13 00:28:53;;;;;;;8.37;6.30;;;;;;;;;;5095882;28;20432;-65
2021/10/13 00:31:21;;;;;;;8.33;6.03;;;;;;;;;;5094127;28;20808;-65
2021/10/13 00:33:48;;;;;;;7.17;5.70;;;;;;;;;;5095403;28;20975;-65
2021/10/13 00:36:16;;;;;;;9.60;5.43;;;;;;;;;;5104129;28;20440;-65
2021/10/13 00:38:43;;;;;;;9.27;6.10;;;;;;;;;;5094370;28;20531;-65
2021/10/13 00:41:10;;;;;;;8.10;7.00;;;;;;;;;;5098968;28;20518;-65
2021/10/13 00:43:37;;;;;;;8.70;6.00;;;;;;;;;;5100695;28;20440;-66
2021/10/13 00:46:05;;;;;;;9.80;7.50;;;;;;;;;;5096779;27;20574;-65
2021/10/13 00:48:33;;;;;;;11.10;7.33;;;;;;;;;;5114176;28;20515;-65
2021/10/13 00:51:00;;;;;;;9.43;6.60;;;;;;;;;;5113463;28;20438;-67
2021/10/13 00:53:28;;;;;;;9.90;6.63;;;;;;;;;;5126383;27;20474;-65
2021/10/13 00:55:56;;;;;;;8.47;7.40;;;;;;;;;;5113379;28;20446;-66
2021/10/13 00:58:23;;;;;;;10.13;7.10;;;;;;;;;;5115181;27;21006;-65
2021/10/13 01:00:55;;;;;;;8.73;7.67;;;;;;;;;;5113380;27;20966;-65
2021/10/13 01:03:25;;;;;;;8.80;7.27;;;;;;;;;;5133506;27;20522;-66
2021/10/13 01:06:00;;;;;;;7.60;6.67;;;;;;;;;;5133867;27;20475;-65
2021/10/13 01:08:31;;;;;;;11.37;6.67;;;;;;;;;;5134251;27;20675;-66
2021/10/13 01:11:05;;;;;;;11.20;7.30;;;;;;;;;;5113250;28;20440;-66
2021/10/13 01:13:38;;;;;;;10.87;7.63;;;;;;;;;;5114061;27;20468;-67
2021/10/13 01:16:11;;;;;;;8.00;7.00;;;;;;;;;;5113377;28;20543;-65
2021/10/13 01:18:40;;;;;;;7.67;5.67;;;;;;;;;;5113686;28;20522;-65
2021/10/13 01:21:15;;;;;;;9.53;7.40;;;;;;;;;;5112827;28;20439;-65
2021/10/13 01:23:49;;;;;;;10.77;7.73;;;;;;;;;;5118017;27;20530;-65
2021/10/13 01:26:20;;;;;;;10.13;7.73;;;;;;;;;;5133182;27;20435;-65
2021/10/13 01:28:50;;;;;;;10.37;8.10;;;;;;;;;;5126805;27;20539;-65
2021/10/13 01:31:19;;;;;;;7.70;6.23;;;;;;;;;;5132960;27;20446;-66
2021/10/13 01:33:50;;;;;;;7.37;6.20;;;;;;;;;;5133533;27;20476;-65
2021/10/13 01:36:20;;;;;;;9.90;6.33;;;;;;;;;;5114361;27;20475;-65
2021/10/13 01:38:49;;;;;;;7.03;5.50;;;;;;;;;;5113664;28;20434;-66
2021/10/13 01:41:17;;;;;;;12.37;6.70;;;;;;;;;;5112604;28;20446;-66
2021/10/13 01:43:46;;;;;;;7.30;6.20;;;;;;;;;;5113800;27;20546;-66
2021/10/13 01:46:16;;;;;;;8.43;5.77;;;;;;;;;;5124180;27;20574;-65
2021/10/13 01:48:45;;;;;;;7.97;6.10;;;;;;;;;;5113747;28;20436;-66
2021/10/13 01:51:13;;;;;;;7.03;4.70;;;;;;;;;;5129848;27;20446;-66
2021/10/13 01:53:41;;;;;;;5.07;4.57;;;;;;;;;;5120891;27;21004;-66
2021/10/13 01:56:08;;;;;;;7.07;5.20;;;;;;;;;;5133387;27;20861;-65
2021/10/13 01:58:36;;;;;;;7.03;5.37;;;;;;;;;;5132810;27;20533;-66
2021/10/13 02:01:04;;;;;;;7.47;5.30;;;;;;;;;;5132428;27;20439;-65
2021/10/13 02:03:34;;;;;;;6.20;5.00;;;;;;;;;;5133477;27;20522;-65
2021/10/13 02:06:02;;;;;;;5.70;4.90;;;;;;;;;;5132578;27;20465;-65
2021/10/13 02:08:30;;;;;;;5.57;4.40;;;;;;;;;;5133220;27;20445;-65
2021/10/13 02:10:59;;;;;;;8.43;5.43;;;;;;;;;;5132615;27;20444;-66
2021/10/13 02:13:30;;;;;;;6.70;5.20;;;;;;;;;;5133394;27;20528;-65
2021/10/13 02:15:57;;;;;;;6.40;4.40;;;;;;;;;;5115640;27;20956;-65
2021/10/13 02:18:26;;;;;;;7.47;5.73;;;;;;;;;;5124410;27;20961;-65
2021/10/13 02:20:56;;;;;;;7.53;6.00;;;;;;;;;;5133241;27;20800;-65
2021/10/13 02:23:24;;;;;;;10.60;5.90;;;;;;;;;;5120706;27;20432;-66
2021/10/13 02:25:52;;;;;;;8.50;5.47;;;;;;;;;;5131743;27;20439;-65
2021/10/13 02:28:21;;;;;;;6.40;5.53;;;;;;;;;;5132406;27;20781;-65
2021/10/13 02:30:49;;;;;;;7.17;5.13;;;;;;;;;;5112581;28;20538;-66
2021/10/13 02:33:16;;;;;;;6.63;5.63;;;;;;;;;;5111874;28;20444;-65
2021/10/13 02:35:43;;;;;;;7.00;5.60;;;;;;;;;;5112338;28;20483;-66
2021/10/13 02:38:11;;;;;;;7.53;5.10;;;;;;;;;;5111770;28;20878;-66
2021/10/13 02:40:39;;;;;;;11.10;6.40;;;;;;;;;;5125942;27;20473;-66
2021/10/13 02:43:06;;;;;;;7.23;5.70;;;;;;;;;;5119027;27;20493;-65
2021/10/13 02:45:37;;;;;;;8.20;5.50;;;;;;;;;;5118277;27;20462;-66
2021/10/13 02:48:08;;;;;;;8.13;5.37;;;;;;;;;;5122389;27;20471;-66
2021/10/13 02:50:36;;;;;;;8.97;6.30;;;;;;;;;;5120062;27;20515;-65
2021/10/13 02:53:05;;;;;;;7.50;5.70;;;;;;;;;;5112699;27;20447;-65
2021/10/13 02:55:34;;;;;;;9.73;6.53;;;;;;;;;;5128471;27;20827;-65
2021/10/13 02:58:05;;;;;;;8.37;6.27;;;;;;;;;;5131426;27;20447;-66
2021/10/13 03:00:33;;;;;;;9.17;5.77;;;;;;;;;;5128091;27;20526;-66
2021/10/13 03:03:04;;;;;;;8.57;5.70;;;;;;;;;;5118615;27;20471;-65
2021/10/13 03:05:31;;;;;;;9.20;5.80;;;;;;;;;;5132639;27;20780;-66
2021/10/13 03:08:01;;;;;;;6.10;5.30;;;;;;;;;;5131662;27;20455;-65
2021/10/13 03:10:29;;;;;;;11.93;5.90;;;;;;;;;;5132245;27;20445;-65
2021/10/13 03:12:59;;;;;;;7.23;5.83;;;;;;;;;;5116789;28;20435;-65
2021/10/13 03:15:27;;;;;;;7.53;5.70;;;;;;;;;;5111599;28;20842;-68
2021/10/13 03:17:55;;;;;;;7.60;6.40;;;;;;;;;;5111485;28;20935;-66
2021/10/13 03:20:23;;;;;;;7.30;5.60;;;;;;;;;;5111864;28;20448;-65
2021/10/13 03:22:51;;;;;;;7.90;6.00;;;;;;;;;;5111741;28;20443;-65
2021/10/13 03:25:23;;;;;;;11.10;7.37;;;;;;;;;;5110841;28;20447;-65
2021/10/13 03:27:50;;;;;;;8.50;6.00;;;;;;;;;;5111429;28;20438;-65
2021/10/13 03:30:19;;;;;;;10.20;7.07;;;;;;;;;;5128644;28;20663;-66
2021/10/13 03:32:46;;;;;;;8.27;6.07;;;;;;;;;;5132044;28;20526;-66
2021/10/13 03:35:20;;;;;;;8.07;6.43;;;;;;;;;;5130866;28;20479;-65
2021/10/13 03:37:48;;;;;;;10.70;7.77;;;;;;;;;;5132232;28;20433;-65
2021/10/13 03:40:15;;;;;;;10.07;7.07;;;;;;;;;;5121773;28;20447;-66
2021/10/13 03:42:43;;;;;;;12.50;7.13;;;;;;;;;;5125324;28;20450;-65
2021/10/13 03:45:12;;;;;;;8.40;6.70;;;;;;;;;;5123629;28;20436;-65
2021/10/13 03:47:41;;;;;;;12.93;6.57;;;;;;;;;;5099881;28;20488;-65
2021/10/13 03:50:09;;;;;;;9.33;6.07;;;;;;;;;;5093626;28;20442;-65
2021/10/13 03:52:36;;;;;;;10.30;6.07;;;;;;;;;;5103237;28;20444;-65
2021/10/13 03:55:03;;;;;;;11.43;6.40;;;;;;;;;;5115094;28;20475;-65
2021/10/13 03:57:30;;;;;;;10.50;6.30;;;;;;;;;;5115507;28;20435;-65
2021/10/13 03:59:57;;;;;;;8.40;5.73;;;;;;;;;;5097965;28;20446;-65
2021/10/13 04:02:24;;;;;;;9.07;5.53;;;;;;;;;;5094262;28;20971;-65
2021/10/13 04:04:53;;;;;;;8.20;5.87;;;;;;;;;;5094753;28;20953;-65
2021/10/13 04:07:20;;;;;;;9.80;5.80;;;;;;;;;;5094285;28;20475;-65
2021/10/13 04:09:47;;;;;;;8.27;6.20;;;;;;;;;;5094943;28;20535;-67
2021/10/13 04:12:14;;;;;;;10.87;6.47;;;;;;;;;;5112483;28;20442;-66
2021/10/13 04:14:42;;;;;;;10.70;5.70;;;;;;;;;;5115383;28;20479;-67
2021/10/13 04:17:09;;;;;;;9.27;6.00;;;;;;;;;;5114707;28;20455;-66
2021/10/13 04:19:36;;;;;;;8.67;6.17;;;;;;;;;;5114410;28;20440;-68
2021/10/13 04:22:05;;;;;;;9.70;5.40;;;;;;;;;;5114064;28;20939;-65
2021/10/13 04:24:32;;;;;;;8.37;6.30;;;;;;;;;;5114729;28;20531;-65
2021/10/13 04:26:59;;;;;;;10.73;6.50;;;;;;;;;;5115045;28;20443;-65
2021/10/13 04:29:27;;;;;;;9.10;6.00;;;;;;;;;;5111717;28;20875;-65
2021/10/13 04:31:54;;;;;;;8.50;5.67;;;;;;;;;;5094093;28;20932;-66
2021/10/13 04:34:21;;;;;;;9.63;6.17;;;;;;;;;;5093494;28;21009;-66
2021/10/13 04:36:48;;;;;;;10.77;7.50;;;;;;;;;;5100968;28;20439;-66
2021/10/13 04:39:17;;;;;;;11.50;6.13;;;;;;;;;;5114244;28;20442;-66
2021/10/13 04:41:44;;;;;;;13.20;7.20;;;;;;;;;;5114659;28;20773;-66
2021/10/13 04:44:11;;;;;;;6.53;5.10;;;;;;;;;;5111972;28;20843;-66
2021/10/13 04:46:38;;;;;;;10.17;6.50;;;;;;;;;;5122533;27;20830;-66
2021/10/13 04:49:05;;;;;;;8.60;5.53;;;;;;;;;;5134326;27;20446;-66
2021/10/13 04:51:32;;;;;;;8.83;6.93;;;;;;;;;;5134727;27;20431;-66
2021/10/13 04:53:59;;;;;;;9.60;6.70;;;;;;;;;;5134953;27;20530;-66
2021/10/13 04:56:28;;;;;;;11.23;6.17;;;;;;;;;;5133866;27;20486;-66
2021/10/13 04:58:55;;;;;;;8.60;6.43;;;;;;;;;;5134893;27;20434;-66
2021/10/13 05:01:22;;;;;;;13.23;7.40;;;;;;;;;;5132883;27;21018;-66
2021/10/13 05:03:49;;;;;;;18.10;6.87;;;;;;;;;;5134745;27;20435;-66
2021/10/13 05:06:16;;;;;;;8.47;6.70;;;;;;;;;;5134496;27;20450;-66
2021/10/13 05:08:44;;;;;;;8.90;6.33;;;;;;;;;;5134682;27;20869;-66
2021/10/13 05:11:11;;;;;;;12.37;6.57;;;;;;;;;;5133793;27;20454;-66
2021/10/13 05:13:39;;;;;;;9.97;6.40;;;;;;;;;;5134678;27;20533;-66
2021/10/13 05:16:06;;;;;;;8.93;6.47;;;;;;;;;;5133985;27;20587;-66
2021/10/13 05:18:34;;;;;;;8.43;6.50;;;;;;;;;;5135806;27;20434;-67
2021/10/13 05:21:01;;;;;;;9.63;6.33;;;;;;;;;;5135119;27;20497;-66
2021/10/13 05:23:29;;;;;;;9.30;7.17;;;;;;;;;;5134260;27;20439;-66
2021/10/13 05:25:56;;;;;;;9.20;5.53;;;;;;;;;;5134370;27;20447;-66
2021/10/13 05:28:23;;;;;;;10.27;5.83;;;;;;;;;;5133668;27;20791;-66
2021/10/13 05:30:51;;;;;;;8.63;5.23;;;;;;;;;;5134461;27;20545;-66
2021/10/13 05:33:18;;;;;;;6.63;4.97;;;;;;;;;;5133687;27;20440;-66
2021/10/13 05:35:46;;;;;;;7.27;4.87;;;;;;;;;;5134341;27;20820;-66
2021/10/13 05:38:13;;;;;;;9.50;4.43;;;;;;;;;;5133592;27;20546;-66
2021/10/13 05:40:40;;;;;;;7.80;5.07;;;;;;;;;;5134112;27;20871;-66
2021/10/13 05:43:08;;;;;;;9.60;6.03;;;;;;;;;;5133594;27;20804;-66
2021/10/13 05:45:35;;;;;;;9.20;5.53;;;;;;;;;;5133840;27;20450;-66
2021/10/13 05:48:04;;;;;;;8.83;5.47;;;;;;;;;;5134022;27;20466;-66
2021/10/13 05:50:32;;;;;;;10.13;5.87;;;;;;;;;;5133973;27;20458;-66
2021/10/13 05:52:59;;;;;;;8.47;6.07;;;;;;;;;;5134102;27;20773;-66
2021/10/13 05:55:26;;;;;;;8.90;6.17;;;;;;;;;;5132798;27;20474;-66
2021/10/13 05:57:53;;;;;;;8.17;5.93;;;;;;;;;;5133830;27;20449;-66
2021/10/13 06:00:22;;;;;;;11.43;7.57;;;;;;;;;;5133177;27;20541;-66
2021/10/13 06:02:49;;;;;;;11.30;6.60;;;;;;;;;;5133390;27;20856;-66
2021/10/13 06:05:18;;;;;;;11.20;7.13;;;;;;;;;;5132982;27;20525;-66
2021/10/13 06:07:45;;;;;;;10.30;6.57;;;;;;;;;;5133502;27;20477;-66
2021/10/13 06:10:12;;;;;;;10.80;7.60;;;;;;;;;;5133134;27;20538;-66
2021/10/13 06:12:39;;;;;;;9.63;6.47;;;;;;;;;;5132758;27;20431;-66
2021/10/13 06:15:07;;;;;;;10.67;6.70;;;;;;;;;;5133040;27;20466;-66
2021/10/13 06:17:34;;;;;;;10.80;7.33;;;;;;;;;;5133511;27;20478;-66
2021/10/13 06:20:01;;;;;;;17.00;7.20;;;;;;;;;;5133232;27;20442;-66
2021/10/13 06:22:30;;;;;;;15.63;8.70;;;;;;;;;;5132766;27;20446;-67
2021/10/13 06:24:57;;;;;;;11.27;7.17;;;;;;;;;;5133151;27;20517;-66
2021/10/13 06:27:24;;;;;;;10.47;8.53;;;;;;;;;;5132585;27;20434;-66
2021/10/13 06:29:51;;;;;;;11.43;8.10;;;;;;;;;;5132612;27;20457;-66
2021/10/13 06:32:18;;;;;;;10.97;8.10;;;;;;;;;;5131868;27;20443;-66
2021/10/13 06:34:46;;;;;;;12.57;7.70;;;;;;;;;;5132559;27;20521;-66
2021/10/13 06:37:13;;;;;;;13.40;8.20;;;;;;;;;;5132466;27;20553;-66
2021/10/13 06:39:41;;;;;;;10.00;7.63;;;;;;;;;;5132945;27;20462;-66
2021/10/13 06:42:09;;;;;;;12.73;7.23;;;;;;;;;;5133049;27;20435;-66
2021/10/13 06:44:36;;;;;;;11.30;7.50;;;;;;;;;;5132563;27;20482;-68
2021/10/13 06:47:03;;;;;;;12.63;8.23;;;;;;;;;;5132296;27;20564;-66
2021/10/13 06:49:30;;;;;;;9.60;7.40;;;;;;;;;;5132385;27;20529;-66
2021/10/13 06:51:58;;;;;;;11.37;7.90;;;;;;;;;;5132457;27;20493;-66
2021/10/13 06:54:26;;;;;;;9.27;8.07;;;;;;;;;;5132154;27;20435;-66
2021/10/13 06:56:54;;;;;;;12.00;6.30;;;;;;;;;;5132552;27;20489;-66
2021/10/13 06:59:21;;;;;;;9.80;6.40;;;;;;;;;;5131679;27;20530;-66
2021/10/13 07:01:48;;;;;;;9.43;6.50;;;;;;;;;;5132391;27;20445;-66
2021/10/13 07:04:16;;;;;;;11.70;6.77;;;9.40;99.90;;;;;;5132005;27;20439;-66
2021/10/13 07:06:43;;;;;;;8.43;7.17;;;;;;;;;;5132627;27;20541;-66
2021/10/13 07:09:10;;;;;;;11.63;6.43;;;;;;;;;;5132469;27;20438;-66
2021/10/13 07:11:37;;;;;;;11.23;7.00;;;;;;;;;;5132432;27;20782;-66
2021/10/13 07:14:06;;;;;;;10.53;7.50;;;;;;;;;;5132482;27;20572;-66
2021/10/13 07:16:33;;;;;;;13.20;6.47;;;;;;;;;;5131745;27;20490;-66
2021/10/13 07:19:00;;;;;;;11.33;7.27;;;;;;;;;;5132425;27;20434;-66
2021/10/13 07:21:28;;;;;;;12.90;7.07;;;;;;;;;;5131745;27;20434;-66
2021/10/13 07:23:55;;;;;;;10.50;7.47;;;;;;;;;;5131801;27;20447;-66
2021/10/13 07:26:22;;;;;;;10.47;6.10;;;;;;;;;;5131178;27;20446;-66
2021/10/13 07:28:49;;;;;;;9.10;6.87;;;;;;;;;;5132178;28;20442;-66
2021/10/13 07:31:18;;;;;;;13.17;7.00;;;;;;;;;;5131326;28;20439;-66
2021/10/13 07:33:45;;;;;;;13.63;6.73;;;;;;;;;;5132167;28;20534;-66
2021/10/13 07:36:13;;;;;;;10.00;6.00;;;;;;;;;;5131641;28;20482;-66
2021/10/13 07:38:41;;;;;;;11.53;6.50;;;;;;;;;;5132208;28;20526;-66
2021/10/13 07:41:09;;;;;;;10.90;7.07;;;;;;;;;;5132361;28;20450;-66
2021/10/13 07:43:36;;;;;;;9.40;6.33;;;;;;;;;;5131301;28;20533;-66
2021/10/13 07:46:03;;;;;;;11.80;7.40;;;;;;;;;;5131931;28;20482;-66
2021/10/13 07:48:31;;;;;;;10.67;6.97;;;;;;;;;;5131577;28;20438;-66
2021/10/13 07:51:00;;;;;;;15.73;7.43;;;;;;;;;;5131784;28;20431;-66
2021/10/13 07:53:27;;;;;;;8.30;5.83;;;;;;;;;;5131426;28;20438;-66
2021/10/13 07:55:54;;;;;;;9.30;7.10;;;;;;;;;;5131843;28;20573;-66
2021/10/13 07:58:21;;;;;;;8.80;6.00;;;;;;;;;;5130935;28;20438;-66
2021/10/13 08:00:49;;;;;;;10.97;7.13;;;;;;;;;;5131656;28;20439;-66
2021/10/13 08:03:16;;;;;;;8.60;6.30;;;;;;;;;;5131356;28;20478;-66
2021/10/13 08:05:45;;;;;;;10.33;6.57;;;;;;;;;;5131504;28;20447;-66
2021/10/13 08:08:12;;;;;;;8.67;6.60;;;;;;;;;;5131591;28;20928;-66
2021/10/13 08:10:39;;;;;;;12.93;5.90;;;;;;;;;;5131641;28;20843;-66
2021/10/13 08:13:06;;;;;;;7.43;4.93;;;;;;;;;;5131846;28;20439;-66
2021/10/13 08:15:34;;;;;;;12.43;6.17;;;;;;;;;;5130931;28;20617;-66
2021/10/13 08:18:01;;;;;;;7.63;5.43;;;;;;;;;;5131785;28;20441;-66
2021/10/13 08:20:28;;;;;;;8.70;5.17;;;;;;;;;;5131140;28;20534;-66
2021/10/13 08:22:56;;;;;;;11.43;5.87;;;;;;;;;;5131679;28;20801;-66
2021/10/13 08:25:24;;;;;;;7.10;5.10;;;;;;;;;;5131066;28;20823;-66
2021/10/13 08:27:51;;;;;;;12.33;8.43;;;;;;;;;;5131558;28;20528;-66
2021/10/13 08:30:18;;;;;;;10.70;5.80;;;;;;;;;;5131059;28;20439;-66
2021/10/13 08:32:45;;;;;;;7.17;5.20;;;;;;;;;;5131620;28;20443;-66
2021/10/13 08:35:12;;;;;;;7.67;5.07;;;;;;;;;;5131710;27;20529;-66
2021/10/13 08:37:39;;;;;;;6.47;4.90;;;;;;;;;;5134486;27;20926;-66
2021/10/13 08:40:09;;;;;;;10.33;6.37;;;;;;;;;;5134948;27;20533;-66
2021/10/13 08:42:36;;;;;;;11.43;6.43;;;;;;;;;;5134609;27;20863;-66
2021/10/13 08:45:03;;;;;;;8.07;6.03;;;;;;;;;;5135156;27;20574;-66
2021/10/13 08:47:31;;;;;;;11.07;7.50;;;;;;;;;;5134179;27;20469;-66
2021/10/13 08:49:58;;;;;;;7.87;5.70;;;;;;;;;;5135246;27;20526;-66
2021/10/13 08:52:25;;;;;;;12.00;8.33;;;;;;;;;;5134212;27;20446;-66
2021/10/13 08:54:55;;;;;;;9.77;6.87;;;;;;;;;;5134662;27;20526;-66
2021/10/13 08:57:26;;;;;;;12.13;7.80;;;;;;;;;;5134014;27;20478;-66
2021/10/13 08:59:53;;;;;;;10.43;7.40;;;9.20;99.90;;;;;;5135063;27;20473;-66
2021/10/13 09:02:39;;;;;;;13.40;8.97;;;10.90;83.60;;;;;;5134194;27;20522;-66
2021/10/13 09:05:09;;;;;;;11.70;6.90;;;10.90;1.00;;;;;;5134559;27;20431;-66
2021/10/13 09:07:37;;;;;;;14.07;7.97;;;10.70;1.00;;;;;;5134293;27;20525;-66
2021/10/13 09:10:05;;;;;;;13.53;8.10;;;10.80;1.00;;;;;;5134434;27;20525;-66
2021/10/13 09:12:35;;;;;;;14.10;8.57;;;11.00;1.00;;;;;;5134055;27;20508;-67
2021/10/13 09:15:08;;;;;;;15.57;8.43;;;11.00;99.90;;;;;;5134682;27;20451;-67
2021/10/13 09:17:53;;;;;;;13.63;8.20;;;11.20;99.90;;;;;;5133964;27;20489;-67
2021/10/13 09:20:21;;;;;;;14.87;8.10;;;11.30;99.90;;;;;;5133580;27;20433;-67
2021/10/13 09:23:00;;;;;;;13.10;8.73;;;11.00;55.20;;;;;;5134459;27;20435;-67
2021/10/13 09:25:28;;;;;;;14.00;6.53;;;11.10;99.90;;;;;;5133572;27;20445;-66
2021/10/13 09:27:58;;;;;;;11.33;5.10;;;11.00;1.00;;;;;;5134464;27;20441;-66
2021/10/13 09:30:31;;;;;;;7.90;4.70;;;11.00;99.90;;;;;;5133460;27;20426;-67
2021/10/13 09:33:12;;;;;;;5.50;3.77;;;10.80;1.00;;;;;;5134161;27;20429;-67
2021/10/13 09:35:48;;;;;;;4.37;2.87;;;10.90;1.00;;;;;;5133364;27;20660;-66
2021/10/13 09:38:17;;;;;;;6.90;3.07;;;11.00;99.90;;;;;;5133853;27;20456;-67
2021/10/13 09:40:46;;;;;;;6.93;3.70;;;11.00;99.90;;;;;;5133144;27;20461;-67
2021/10/13 09:43:33;;;;;;;10.37;4.00;;;10.90;99.90;;;;;;5134608;27;20942;-68
2021/10/13 09:46:06;;;;;;;8.30;4.00;;;10.90;99.90;;;;;;5134650;27;20573;-67
2021/10/13 09:48:34;;;;;;;8.17;4.23;;;11.10;99.90;;;;;;5133329;27;20435;-67
2021/10/13 09:51:14;;;;;;;8.70;4.40;;;11.20;1.00;;;;;;5133635;27;20453;-68
2021/10/13 09:53:41;;;;;;;8.67;3.60;;;11.20;1.00;;;;;;5133003;27;20943;-67
2021/10/13 09:56:26;;;;;;;5.60;3.67;;;11.40;1.00;;;;;;5133697;27;20478;-67
2021/10/13 09:59:14;;;;;;;8.47;4.03;;;11.40;1.00;;;;;;5133824;27;20423;-67
2021/10/13 10:01:44;;;;;;;7.83;4.40;;;11.30;1.00;;;;;;5133322;27;20613;-67
2021/10/13 10:04:15;;;;;;;5.90;4.50;;;11.30;1.00;;;;;;5133355;27;20442;-67
2021/10/13 10:06:44;;;;;;;7.67;4.30;;;11.20;1.00;;;;;;5132821;27;21022;-67
2021/10/13 10:09:17;;;;;;;7.63;4.80;;;11.50;1.00;;;;;;5133316;27;20911;-67
2021/10/13 10:11:44;;;;;;;8.37;6.20;;;11.60;99.90;;;;;;5132942;27;20479;-67
2021/10/13 10:14:47;;;;;;;7.20;4.80;;;11.70;1.00;;;;;;5133512;27;20481;-67
2021/10/13 10:17:40;;;;;;;5.83;4.10;;;11.70;1.00;;;;;;5129458;27;20482;-67
2021/10/13 10:20:08;;;;;;;6.17;3.53;;;11.90;99.90;;;;;;5133201;27;20959;-67
2021/10/13 10:22:46;;;;;;;5.70;3.80;;;12.20;99.90;;;;;;5132715;27;20439;-67
2021/10/13 10:25:14;;;;;;;7.13;4.73;;;12.60;38.60;;;;;;5133379;27;20435;-67
2021/10/13 10:27:41;;;;;;;5.23;3.33;;;12.20;99.90;;;;;;5132711;27;20446;-67
2021/10/13 10:30:17;;;;;;;4.40;4.00;;;12.80;1.00;;;;;;5133289;27;20441;-67
2021/10/13 10:32:47;;;;;;;5.27;3.60;;;12.50;1.00;;;;;;5132643;27;20817;-68
2021/10/13 10:35:16;;;;;;;3.90;3.00;;;12.30;1.00;;;;;;5133268;27;20441;-67
2021/10/13 10:37:45;;;;;;;3.70;2.53;;;12.20;99.90;;;;;;5132166;27;20677;-67
2021/10/13 10:40:15;;;;;;;4.93;3.67;;;12.10;99.90;;;;;;5132783;27;20894;-67
2021/10/13 10:42:54;;;;;;;6.23;5.00;;;12.10;1.00;;;;;;5132163;27;20521;-67
2021/10/13 10:45:23;;;;;;;11.83;6.10;;;12.10;99.90;;;;;;5132581;27;20434;-67
2021/10/13 10:47:57;;;;;;;5.70;4.80;;;12.10;99.90;;;;;;5133017;27;20470;-67
2021/10/13 10:50:46;;;;;;;6.77;4.80;;;12.00;99.90;;;;;;5132145;27;20921;-67
2021/10/13 10:53:28;;;;;;;5.07;3.97;;;12.00;1.00;;;;;;5132943;27;20782;-67
2021/10/13 10:55:57;;;;;;;7.20;4.67;;;12.00;1.00;;;;;;5132527;27;20423;-67
2021/10/13 10:58:26;;;;;;;8.70;5.10;;;11.80;99.90;;;;;;5131987;27;20931;-67
2021/10/13 11:01:05;;;;;;;7.60;5.03;;;11.60;1.00;;;;;;5132652;27;20518;-67
2021/10/13 11:03:37;;;;;;;10.03;6.43;;;11.40;1.00;;;;;;5132133;27;20453;-67
2021/10/13 11:06:17;;;;;;;11.60;6.60;;;11.70;1.00;;;;;;5132562;27;20434;-67
2021/10/13 11:08:51;;;;;;;7.93;6.03;;;11.90;1.00;;;;;;5132050;27;20423;-67
2021/10/13 11:11:18;;;;;;;6.23;5.20;;;11.80;99.90;;;;;;5132547;27;20480;-67
2021/10/13 11:13:55;;;;;;;8.00;4.90;;;11.80;99.90;;;;;;5131937;27;20600;-67
2021/10/13 11:16:22;;;;;;;7.57;4.80;;;11.50;1.00;;;;;;5132276;27;20872;-67
2021/10/13 11:18:50;;;;;;;5.47;4.17;;;11.80;15.40;;;;;;5131844;27;20801;-67
2021/10/13 11:21:17;;;;;;;6.37;4.67;;;12.00;99.90;;;;;;5132063;27;20449;-67
2021/10/13 11:23:44;;;;;;;4.13;3.73;;;12.00;99.90;;;;;;5131658;27;20825;-67
2021/10/13 11:26:11;;;;;;;6.27;4.17;;;12.20;99.90;;;;;;5132036;27;20530;-67
2021/10/13 11:28:40;;;;;;;4.30;3.33;;;12.40;99.90;;;;;;5131145;27;20938;-67
2021/10/13 11:31:09;;;;;;;3.73;3.43;;;12.50;17.90;;;;;;5132197;28;20448;-67
2021/10/13 11:33:36;;;;;;;3.00;2.70;;;12.60;99.90;;;;;;5131906;28;20446;-67
2021/10/13 11:36:06;;;;;;;2.80;2.60;;;12.40;99.90;;;;;;5132289;28;20897;-67
2021/10/13 11:38:35;;;;;;;5.17;3.37;;;12.20;99.90;;;;;;5131518;28;20558;-67
2021/10/13 11:41:11;;;;;;;5.73;3.10;;;12.00;99.90;;;;;;5132008;28;20438;-67
2021/10/13 11:43:38;;;;;;;5.80;4.37;;;11.80;1.00;;;;;;5131315;28;20438;-67
2021/10/13 11:46:06;;;;;;;6.03;3.80;;;11.70;99.90;;;;;;5131872;28;20561;-67
2021/10/13 11:48:34;;;;;;;3.97;3.57;;;11.80;86.60;;;;;;5131233;28;20426;-67
2021/10/13 11:51:04;;;;;;;5.57;3.57;;;11.50;1.00;;;;;;5132271;28;20438;-67
2021/10/13 11:53:31;;;;;;;3.50;2.67;;;11.50;99.90;;;;;;5131364;28;20447;-67
2021/10/13 11:55:58;;;;;;;5.20;3.20;;;11.50;1.00;;;;;;5132182;28;20517;-67
2021/10/13 11:58:27;;;;;;;3.17;2.70;;;11.60;1.00;;;;;;5131653;28;20562;-67
2021/10/13 12:00:55;;;;;;;2.70;2.30;;;11.60;1.00;;;;;;5131676;28;20533;-67
2021/10/13 12:03:29;;;;;;;6.90;1.57;;;11.60;1.00;;;;;;5131742;28;20987;-67
2021/10/13 12:05:58;;;;;;;2.90;2.60;;;11.50;99.90;;;;;;5131943;28;20435;-67
2021/10/13 12:08:31;;;;;;;5.63;1.70;;;11.40;99.90;;;;;;5131655;28;20951;-67
2021/10/13 12:11:06;;;;;;;1.53;1.43;;;11.60;1.00;;;;;;5133446;27;20466;-67
2021/10/13 12:13:36;;;;;;;6.10;1.70;;;11.70;36.80;;;;;;5135104;27;20509;-67
2021/10/13 12:16:06;;;;;;;2.70;1.23;;;12.10;1.00;;;;;;5135697;27;20442;-67
2021/10/13 12:18:35;;;;;;;1.07;0.90;;;12.30;1.00;;;;;;5135118;27;20485;-68
2021/10/13 12:21:14;;;;;;;2.20;0.90;;;12.50;1.00;;;;;;5135392;27;20457;-67
2021/10/13 12:23:45;;;;;;;2.30;0.77;;;12.40;1.00;;;;;;5134984;27;20898;-67
2021/10/13 12:26:17;;;;;;;2.40;1.10;;;12.50;99.90;;;;;;5135710;27;20430;-67
2021/10/13 12:28:44;;;;;;;1.23;0.70;;;12.60;99.90;;;;;;5135085;27;20472;-67
2021/10/13 12:31:13;;;;;;;1.93;1.00;;;12.70;99.90;;;;;;5135532;27;20521;-68
2021/10/13 12:33:46;;;;;;;1.83;1.40;;;12.60;99.90;;;;;;5134902;27;20465;-67
2021/10/13 12:36:18;;;;;;;0.90;0.80;;;;;;;;;;5135390;27;20845;-67
2021/10/13 12:38:48;;;;;;;1.20;0.80;;;;;;;;;;5134603;27;20966;-67
2021/10/13 12:41:16;;;;;;;0.83;0.80;;;;;;;;;;5135274;27;20529;-67
2021/10/13 12:43:44;;;;;;;2.60;0.93;;;;;;;;;;5134608;27;20462;-66
2021/10/13 12:46:25;;;;;;;1.57;1.10;;;;;;;;;;5134604;27;20569;-66
2021/10/13 12:48:53;;;;;;;2.10;1.20;;;;;;;;;;5134289;27;20923;-66
2021/10/13 12:51:20;;;;;;;2.90;1.13;;;;;;;;;;5134994;27;20437;-66
2021/10/13 12:53:49;;;;;;;1.70;0.93;;;;;;;;;;5134184;27;20932;-66
2021/10/13 12:56:17;;;;;;;2.90;1.10;;;;;;;;;;5134620;27;20469;-66
2021/10/13 12:58:45;;;;;;;1.73;1.40;;;;;;;;;;5134302;27;20481;-66
2021/10/13 13:01:12;;;;;;;1.77;1.57;;;;;;;;;;5134485;27;20442;-66
2021/10/13 13:03:39;;;;;;;1.63;0.93;;;;;;;;;;5133936;27;20450;-66
2021/10/13 13:06:07;;;;;;;3.53;1.67;;;;;;;;;;5135811;27;20445;-67
2021/10/13 13:08:34;;;;;;;2.43;1.10;;;;;;;;;;5135333;27;20873;-66
2021/10/13 13:11:03;;;;;;;2.27;1.07;;;;;;;;;;5134820;27;20927;-66
2021/10/13 13:13:30;;;;;;;1.80;1.53;;;;;;;;;;5134702;27;20534;-66
2021/10/13 13:15:57;;;;;;;3.23;1.80;;;;;;;;;;5133917;27;20447;-66
2021/10/13 13:18:24;;;;;;;6.57;1.30;;;;;;;;;;5134481;27;20474;-66
2021/10/13 13:20:53;;;;;;;2.50;1.53;;;12.50;99.90;;;;;;5133997;27;20435;-66
2021/10/13 13:23:23;;;;;;;1.50;1.40;;;13.30;1.00;;;;;;5133371;27;20451;-66
2021/10/13 13:25:51;;;;;;;2.17;1.20;;;13.40;1.00;;;;;;5133656;27;20886;-66
2021/10/13 13:28:19;;;;;;;2.93;1.37;;;12.90;1.00;;;;;;5134414;27;20793;-66
2021/10/13 13:30:47;;;;;;;2.30;1.30;;;;;;;;;;5133753;27;20449;-66
2021/10/13 13:33:14;;;;;;;1.87;1.30;;;;;;;;;;5134018;27;20431;-66
2021/10/13 13:35:41;;;;;;;1.60;1.10;;;;;;;;;;5133314;27;21024;-66
2021/10/13 13:38:08;;;;;;;1.87;1.03;;;;;;;;;;5134229;27;20844;-66
2021/10/13 13:40:38;;;;;;;2.17;1.37;;;;;;;;;;5133306;27;20946;-66
2021/10/13 13:43:05;;;;;;;1.70;1.27;;;;;;;;;;5134202;27;20450;-66
2021/10/13 13:45:35;;;;;;;2.37;1.57;;;12.80;1.00;;;;;;5134109;27;20529;-66
2021/10/13 13:48:02;;;;;;;2.20;1.10;;;12.80;1.00;;;;;;5133734;27;20478;-66
2021/10/13 13:50:29;;;;;;;1.40;1.20;;;13.00;1.00;;;;;;5133845;27;20775;-66
2021/10/13 13:52:56;;;;;;;1.70;1.40;;;13.10;1.00;;;;;;5133517;27;20438;-66
2021/10/13 13:55:23;;;;;;;2.10;1.83;;;13.50;1.00;;;;;;5133863;27;20479;-66
2021/10/13 13:57:52;;;;;;;4.50;1.50;;;13.70;1.00;;;;;;5133244;27;20825;-66
2021/10/13 14:00:19;;;;;;;2.43;1.93;;;13.50;1.00;;;;;;5133855;27;20434;-66
2021/10/13 14:02:47;;;;;;;5.40;2.80;;;13.50;1.00;;;;;;5132725;27;20465;-66
2021/10/13 14:05:14;;;;;;;11.10;2.53;;;13.60;1.00;;;;;;5133390;27;20453;-66
2021/10/13 14:07:41;;;;;;;3.13;1.10;;;13.60;1.00;;;;;;5132678;27;20442;-66
2021/10/13 14:10:10;;;;;;;3.07;1.63;;;13.90;99.90;;;;;;5133684;27;20479;-66
2021/10/13 14:12:38;;;;;;;2.87;1.47;;;13.40;99.90;;;;;;5132877;27;20441;-66
2021/10/13 14:15:06;;;;;;;1.50;1.40;;;13.20;99.90;;;;;;5133427;27;20874;-66